Time,TemperatureF,DewpointF,PressureIn,WindDirection,WindDirectionDegrees,WindSpeedMPH,WindSpeedGustMPH,Humidity,HourlyPrecipIn,Conditions,Clouds,dailyrainin,SoftwareType,DateUTC
2013-02-17 00:00:00,20.0,-4.0,-100.00,SSW,204,9.0,11.0,34,-99.99,,,-99.99,,2013-02-17 07:00:00,
2013-02-17 00:42:00,20.0,-4.0,-100.00,SSW,204,9.0,11.0,34,-99.99,,,-99.99,,2013-02-17 07:42:00,
2013-02-17 00:52:00,20.0,-4.0,-100.00,SSW,204,9.0,11.0,34,-99.99,,,-99.99,,2013-02-17 07:52:00,
2013-02-17 01:00:00,20.0,-5.0,-100.00,SSW,207,10.0,14.0,32,-99.99,,,-99.99,,2013-02-17 08:00:00,
2013-02-17 01:42:00,20.0,-5.0,-100.00,SSW,207,10.0,14.0,32,-99.99,,,-99.99,,2013-02-17 08:42:00,
2013-02-17 01:52:00,20.0,-5.0,-100.00,SSW,207,10.0,14.0,32,-99.99,,,-99.99,,2013-02-17 08:52:00,
2013-02-17 02:00:00,19.0,-6.0,-100.00,SSW,213,10.0,14.0,32,-99.99,,,-99.99,,2013-02-17 09:00:00,
2013-02-17 02:42:00,19.0,-6.0,-100.00,SSW,213,10.0,14.0,32,-99.99,,,-99.99,,2013-02-17 09:42:00,
2013-02-17 02:52:00,19.0,-6.0,-100.00,SSW,213,10.0,14.0,32,-99.99,,,-99.99,,2013-02-17 09:52:00,
2013-02-17 03:00:00,18.0,-6.0,-100.00,SSW,210,13.0,17.0,33,-99.99,,,-99.99,,2013-02-17 10:00:00,
2013-02-17 03:42:00,18.0,-6.0,-100.00,SSW,210,13.0,17.0,33,-99.99,,,-99.99,,2013-02-17 10:42:00,
2013-02-17 03:52:00,18.0,-6.0,-100.00,SSW,210,13.0,17.0,33,-99.99,,,-99.99,,2013-02-17 10:52:00,
2013-02-17 04:00:00,17.0,-4.0,-100.00,SSW,210,15.0,19.0,38,-99.99,,,-99.99,,2013-02-17 11:00:00,
2013-02-17 04:42:00,17.0,-4.0,-100.00,SSW,210,15.0,19.0,38,-99.99,,,-99.99,,2013-02-17 11:42:00,
2013-02-17 04:52:00,17.0,-4.0,-100.00,SSW,210,15.0,19.0,38,-99.99,,,-99.99,,2013-02-17 11:52:00,
2013-02-17 05:00:00,16.0,-6.0,-100.00,SW,214,15.0,20.0,37,-99.99,,,-99.99,,2013-02-17 12:00:00,
2013-02-17 05:42:00,16.0,-6.0,-100.00,SW,214,15.0,20.0,37,-99.99,,,-99.99,,2013-02-17 12:42:00,
2013-02-17 05:52:00,16.0,-6.0,-100.00,SW,214,15.0,20.0,37,-99.99,,,-99.99,,2013-02-17 12:52:00,
2013-02-17 06:00:00,17.0,-10.0,-100.00,SSW,209,14.0,19.0,29,-99.99,,,-99.99,,2013-02-17 13:00:00,
2013-02-17 06:42:00,17.0,-10.0,-100.00,SSW,209,14.0,19.0,29,-99.99,,,-99.99,,2013-02-17 13:42:00,
2013-02-17 06:52:00,17.0,-10.0,-100.00,SSW,209,14.0,19.0,29,-99.99,,,-99.99,,2013-02-17 13:52:00,
2013-02-17 07:00:00,17.0,-14.0,-100.00,SSW,211,16.0,20.0,23,-99.99,,,-99.99,,2013-02-17 14:00:00,
2013-02-17 07:42:00,17.0,-14.0,-100.00,SSW,211,16.0,20.0,23,-99.99,,,-99.99,,2013-02-17 14:42:00,
2013-02-17 07:53:00,17.0,-14.0,-100.00,SSW,211,16.0,20.0,23,-99.99,,,-99.99,,2013-02-17 14:53:00,
2013-02-17 08:00:00,18.0,-16.0,-100.00,SW,220,15.0,22.0,20,-99.99,,,-99.99,,2013-02-17 15:00:00,
2013-02-17 08:42:00,18.0,-16.0,-100.00,SW,220,15.0,22.0,20,-99.99,,,-99.99,,2013-02-17 15:42:00,
2013-02-17 08:52:00,18.0,-16.0,-100.00,SW,220,15.0,22.0,20,-99.99,,,-99.99,,2013-02-17 15:52:00,
2013-02-17 09:00:00,20.0,-17.0,-100.00,SW,214,16.0,22.0,17,-99.99,,,-99.99,,2013-02-17 16:00:00,
2013-02-17 09:42:00,20.0,-17.0,-100.00,SW,214,16.0,22.0,17,-99.99,,,-99.99,,2013-02-17 16:42:00,
2013-02-17 09:52:00,20.0,-17.0,-100.00,SW,214,16.0,22.0,17,-99.99,,,-99.99,,2013-02-17 16:52:00,
2013-02-17 10:00:00,21.0,-17.0,-100.00,SW,214,16.0,28.0,17,-99.99,,,-99.99,,2013-02-17 17:00:00,
2013-02-17 10:42:00,21.0,-17.0,-100.00,SW,214,16.0,28.0,17,-99.99,,,-99.99,,2013-02-17 17:42:00,
2013-02-17 10:52:00,21.0,-17.0,-100.00,SW,214,16.0,28.0,17,-99.99,,,-99.99,,2013-02-17 17:52:00,
2013-02-17 11:00:00,22.0,-15.0,-100.00,SW,216,16.0,27.0,18,-99.99,,,-99.99,,2013-02-17 18:00:00,
2013-02-17 11:42:00,22.0,-15.0,-100.00,SW,216,16.0,27.0,18,-99.99,,,-99.99,,2013-02-17 18:42:00,
2013-02-17 11:52:00,22.0,-15.0,-100.00,SW,216,16.0,27.0,18,-99.99,,,-99.99,,2013-02-17 18:52:00,
2013-02-17 12:00:00,23.0,-17.0,-100.00,SW,218,17.0,34.0,15,-99.99,,,-99.99,,2013-02-17 19:00:00,
2013-02-17 12:42:00,23.0,-17.0,-100.00,SW,218,17.0,34.0,15,-99.99,,,-99.99,,2013-02-17 19:42:00,
2013-02-17 12:52:00,23.0,-17.0,-100.00,SW,218,17.0,34.0,15,-99.99,,,-99.99,,2013-02-17 19:52:00,
2013-02-17 13:00:00,24.0,-19.0,-100.00,SW,219,18.0,34.0,14,-99.99,,,-99.99,,2013-02-17 20:00:00,
2013-02-17 13:42:00,24.0,-19.0,-100.00,SW,219,18.0,34.0,14,-99.99,,,-99.99,,2013-02-17 20:42:00,
2013-02-17 13:52:00,24.0,-19.0,-100.00,SW,219,18.0,34.0,14,-99.99,,,-99.99,,2013-02-17 20:52:00,
2013-02-17 14:00:00,22.0,-15.0,-100.00,SW,222,18.0,33.0,18,-99.99,,,-99.99,,2013-02-17 21:00:00,
2013-02-17 14:42:00,22.0,-15.0,-100.00,SW,222,18.0,33.0,18,-99.99,,,-99.99,,2013-02-17 21:42:00,
2013-02-17 14:53:00,22.0,-15.0,-100.00,SW,222,18.0,33.0,18,-99.99,,,-99.99,,2013-02-17 21:53:00,
2013-02-17 15:00:00,20.0,-6.0,-100.00,SW,229,17.0,33.0,31,-99.99,,,-99.99,,2013-02-17 22:00:00,
2013-02-17 15:42:00,20.0,-6.0,-100.00,SW,229,17.0,33.0,31,-99.99,,,-99.99,,2013-02-17 22:42:00,
2013-02-17 15:52:00,20.0,-6.0,-100.00,SW,229,17.0,33.0,31,-99.99,,,-99.99,,2013-02-17 22:52:00,
2013-02-17 16:00:00,20.0,-4.0,-100.00,SW,231,16.0,36.0,34,-99.99,,,-99.99,,2013-02-17 23:00:00,
2013-02-17 16:42:00,20.0,-4.0,-100.00,SW,231,16.0,36.0,34,-99.99,,,-99.99,,2013-02-17 23:42:00,
2013-02-17 16:52:00,20.0,-4.0,-100.00,SW,231,16.0,36.0,34,-99.99,,,-99.99,,2013-02-17 23:52:00,
2013-02-17 17:00:00,19.0,-3.0,-100.00,SW,233,16.0,37.0,36,-99.99,,,-99.99,,2013-02-18 00:00:00,
2013-02-17 17:42:00,19.0,-3.0,-100.00,SW,233,16.0,37.0,36,-99.99,,,-99.99,,2013-02-18 00:42:00,
2013-02-17 17:52:00,19.0,-3.0,-100.00,SW,233,16.0,37.0,36,-99.99,,,-99.99,,2013-02-18 00:52:00,
2013-02-17 18:00:00,19.0,-4.0,-100.00,SW,234,13.0,33.0,35,-99.99,,,-99.99,,2013-02-18 01:00:00,
2013-02-17 18:42:00,19.0,-4.0,-100.00,SW,234,13.0,33.0,35,-99.99,,,-99.99,,2013-02-18 01:42:00,
2013-02-17 18:52:00,19.0,-4.0,-100.00,SW,234,13.0,33.0,35,-99.99,,,-99.99,,2013-02-18 01:52:00,
2013-02-17 19:00:00,17.0,-3.0,-100.00,SW,226,14.0,35.0,41,-99.99,,,-99.99,,2013-02-18 02:00:00,
2013-02-17 19:42:00,17.0,-3.0,-100.00,SW,226,14.0,35.0,41,-99.99,,,-99.99,,2013-02-18 02:42:00,
2013-02-17 19:52:00,17.0,-3.0,-100.00,SW,226,14.0,35.0,41,-99.99,,,-99.99,,2013-02-18 02:52:00,
2013-02-17 20:00:00,17.0,-1.0,-100.00,SW,225,13.0,28.0,46,-99.99,,,-99.99,,2013-02-18 03:00:00,
2013-02-17 20:42:00,17.0,-1.0,-100.00,SW,225,13.0,28.0,46,-99.99,,,-99.99,,2013-02-18 03:42:00,
2013-02-17 20:52:00,17.0,-1.0,-100.00,SW,225,13.0,28.0,46,-99.99,,,-99.99,,2013-02-18 03:52:00,
2013-02-17 21:00:00,16.0,0.0,-100.00,SW,229,17.0,35.0,47,-99.99,,,-99.99,,2013-02-18 04:00:00,
2013-02-17 21:42:00,16.0,0.0,-100.00,SW,229,17.0,35.0,47,-99.99,,,-99.99,,2013-02-18 04:42:00,
2013-02-17 21:52:00,16.0,0.0,-100.00,SW,229,17.0,35.0,47,-99.99,,,-99.99,,2013-02-18 04:52:00,
2013-02-17 22:00:00,16.0,-2.0,-100.00,SW,229,17.0,31.0,44,-99.99,,,-99.99,,2013-02-18 05:00:00,
2013-02-17 22:42:00,16.0,-2.0,-100.00,SW,229,17.0,31.0,44,-99.99,,,-99.99,,2013-02-18 05:42:00,
2013-02-17 22:52:00,16.0,-2.0,-100.00,SW,229,17.0,31.0,44,-99.99,,,-99.99,,2013-02-18 05:52:00,
2013-02-17 23:00:00,15.0,-3.0,-100.00,SW,229,16.0,30.0,44,-99.99,,,-99.99,,2013-02-18 06:00:00,
2013-02-17 23:42:00,15.0,-3.0,-100.00,SW,229,16.0,30.0,44,-99.99,,,-99.99,,2013-02-18 06:42:00,
2013-02-17 23:52:00,15.0,-3.0,-100.00,SW,229,16.0,30.0,44,-99.99,,,-99.99,,2013-02-18 06:52:00,